Time;durP1;ratioP1;P1;durP2;ratioP2;P2;SDS_P1;SDS_P2;PMS_P1;PMS_P2;Temp;Humidity;BMP_temperature;BMP_pressure;BME280_temperature;BME280_humidity;BME280_pressure;Samples;Min_cycle;Max_cycle;Signal;HPM_P1;HPM_P2
2021/06/07 00:05:55;;;;;;;8.68;5.55;;;;;;;14.68;90.27;100830.19;714245;1186;113883;-78
2021/06/07 00:21:21;;;;;;;13.05;7.68;;;;;;;14.61;91.79;100836.02;714815;1200;114206;-78
2021/06/07 00:36:42;;;;;;;15.40;8.20;;;;;;;14.42;92.03;100826.39;714242;1200;114283;-77
2021/06/07 00:52:03;;;;;;;17.23;8.70;;;;;;;13.95;93.39;100819.39;714569;1199;115487;-78
2021/06/07 01:07:23;;;;;;;31.85;14.40;;;;;;;13.87;95.19;100826.34;714107;1199;114220;-78
2021/06/07 01:22:45;;;;;;;16.63;10.10;;;;;;;13.61;94.95;100822.53;715671;1200;114153;-78
2021/06/07 01:38:08;;;;;;;15.88;9.85;;;;;;;13.39;96.02;100836.84;714310;1202;114496;-77
2021/06/07 01:53:30;;;;;;;21.90;10.55;;;;;;;13.41;96.14;100834.91;714225;1199;115399;-77
2021/06/07 02:08:51;;;;;;;32.83;14.53;;;;;;;13.24;97.25;100836.41;714067;1199;115500;-78
2021/06/07 02:24:12;;;;;;;18.20;10.40;;;;;;;13.15;96.98;100843.34;714087;1177;114299;-76
2021/06/07 02:39:32;;;;;;;21.53;11.93;;;;;;;12.99;96.70;100832.53;714228;1200;114054;-77
2021/06/07 02:54:53;;;;;;;23.83;12.20;;;;;;;12.87;97.56;100838.91;714318;1199;114010;-77
2021/06/07 03:10:14;;;;;;;23.00;11.30;;;;;;;13.12;97.66;100842.80;714302;1199;114131;-77
2021/06/07 03:25:36;;;;;;;11.20;8.10;;;;;;;13.10;98.71;100842.91;714113;1199;114549;-77
2021/06/07 03:40:57;;;;;;;16.60;10.40;;;;;;;13.40;99.64;100848.23;714039;1199;113981;-77
2021/06/07 03:56:18;;;;;;;13.75;8.38;;;;;;;13.84;100.00;100837.19;714082;1199;114751;-77
2021/06/07 04:11:38;;;;;;;14.63;8.25;;;;;;;14.37;99.74;100839.22;714205;1200;114025;-76
2021/06/07 04:26:59;;;;;;;13.03;9.03;;;;;;;14.78;98.41;100834.42;714656;1199;114954;-77
2021/06/07 04:42:19;;;;;;;12.08;7.90;;;;;;;15.18;98.24;100834.95;714226;1200;114956;-76
2021/06/07 04:57:40;;;;;;;13.35;7.88;;;;;;;15.92;97.91;100830.22;714657;1203;113909;-76
2021/06/07 05:13:00;;;;;;;12.67;7.97;;;;;;;16.77;95.88;100839.98;716940;1165;114053;-76
2021/06/07 05:28:21;;;;;;;117.15;14.98;;;;;;;17.40;91.91;100839.56;713843;1203;115075;-76
2021/06/07 05:43:42;;;;;;;11.88;6.25;;;;;;;18.27;87.48;100836.24;713874;1202;115402;-77
2021/06/07 05:59:06;;;;;;;11.40;6.73;;;;;;;18.84;85.22;100844.91;714341;1203;114156;-76
2021/06/07 06:14:27;;;;;;;11.55;6.10;;;;;;;19.48;85.10;100835.79;713979;1203;115359;-84
2021/06/07 06:29:48;;;;;;;8.70;3.65;;;;;;;20.08;76.81;100828.71;714082;1203;114103;-83
2021/06/07 06:45:09;;;;;;;4.00;2.97;;;;;;;20.63;71.32;100837.17;713877;1199;115135;-83
2021/06/07 07:00:35;;;;;;;5.63;3.10;;;;;;;21.34;68.01;100840.93;713875;1200;113803;-83
2021/06/07 07:15:56;;;;;;;4.08;2.73;;;;;;;22.18;65.26;100833.90;713770;1199;113998;-77
2021/06/07 07:31:17;;;;;;;6.65;3.98;;;;;;;23.01;61.12;100841.77;713787;1202;114760;-75
2021/06/07 07:46:37;;;;;;;4.98;2.43;;;;;;;23.50;57.79;100837.06;713784;1176;114285;-74
2021/06/07 08:02:03;;;;;;;3.60;2.50;;;;;;;24.64;56.65;100831.39;713827;1180;113850;-75
2021/06/07 08:17:23;;;;;;;6.13;2.20;;;;;;;24.98;54.09;100815.88;714335;1193;114122;-86
2021/06/07 08:32:44;;;;;;;4.75;2.43;;;;;;;25.89;53.42;100821.69;714376;1192;115556;-72
2021/06/07 08:48:06;;;;;;;3.58;2.60;;;;;;;26.80;52.47;100814.75;713758;1200;114533;-73
2021/06/07 09:03:32;;;;;;;5.80;2.60;;;;;;;26.83;50.13;100803.52;714361;1200;113683;-73
2021/06/07 09:18:52;;;;;;;8.80;2.50;;;;;;;27.05;49.25;100810.02;714127;1200;114394;-73
2021/06/07 09:34:24;;;;;;;5.33;2.50;;;;;;;27.90;46.96;100793.58;714055;1199;114228;-74
2021/06/07 09:49:57;;;;;;;3.55;2.60;;;;;;;28.34;47.20;100795.80;714290;1199;115229;-74
2021/06/07 10:05:17;;;;;;;4.30;2.75;;;;;;;28.23;46.67;100790.20;714262;1202;115130;-76
2021/06/07 10:20:51;;;;;;;3.85;3.15;;;;;;;28.16;46.50;100784.13;714317;1203;114292;-74
2021/06/07 10:36:21;;;;;;;4.60;2.65;;;;;;;29.16;47.36;100785.57;714205;1199;113953;-74
2021/06/07 10:52:06;;;;;;;8.15;3.20;;;;;;;29.94;46.22;100773.94;715930;1200;114159;-80
2021/06/07 11:07:27;;;;;;;3.93;2.63;;;;;;;29.43;46.45;100760.58;714420;1199;115202;-80
2021/06/07 11:23:08;;;;;;;27.80;4.88;;;;;;;30.06;46.94;100746.76;716501;1203;114161;-79
2021/06/07 11:38:36;;;;;;;8.08;3.43;;;;;;;30.61;46.12;100745.67;715837;1200;115711;-79
2021/06/07 11:53:56;;;;;;;6.07;3.03;;;;;;;31.45;45.30;100734.30;714134;1203;115109;-79
2021/06/07 12:09:19;;;;;;;6.43;3.05;;;;;;;32.29;45.50;100715.31;714211;1200;114756;-82
2021/06/07 12:24:54;;;;;;;5.63;4.17;;;;;;;32.75;45.68;100709.08;714235;1187;113802;-82
2021/06/07 12:40:23;;;;;;;4.45;3.65;;;;;;;32.73;45.99;100705.81;714310;1199;115065;-81
2021/06/07 12:55:45;;;;;;;4.50;3.35;;;;;;;32.93;46.46;100711.22;714304;1199;113825;-82
2021/06/07 13:11:06;;;;;;;5.13;3.27;;;;;;;33.06;46.65;100707.11;714292;1199;114937;-82
2021/06/07 13:26:32;;;;;;;4.10;3.33;;;;;;;32.38;47.45;100693.88;714234;1199;114757;-82
2021/06/07 13:41:53;;;;;;;5.47;4.03;;;;;;;32.57;47.88;100694.93;715307;1202;115217;-78
2021/06/07 13:57:14;;;;;;;6.40;3.60;;;;;;;32.09;46.66;100684.33;714760;1199;115609;-78
2021/06/07 14:12:34;;;;;;;11.33;3.88;;;;;;;31.06;46.81;100667.74;714448;1198;114626;-78
2021/06/07 14:27:55;;;;;;;13.78;9.28;;;;;;;30.86;47.00;100661.11;714293;1199;114930;-79
2021/06/07 14:43:15;;;;;;;6.58;3.38;;;;;;;30.88;46.34;100663.55;714187;1178;113926;-79
2021/06/07 14:58:36;;;;;;;4.37;2.53;;;;;;;29.85;45.84;100660.81;714487;1200;115169;-79
2021/06/07 15:13:57;;;;;;;9.18;5.83;;;;;;;29.92;46.56;100652.53;714085;1181;113505;-81
2021/06/07 15:29:17;;;;;;;6.65;3.23;;;;;;;29.60;46.39;100642.42;714566;1200;113684;-81
2021/06/07 15:44:38;;;;;;;3.78;2.98;;;;;;;28.63;41.96;100628.47;714404;1177;113606;-79
2021/06/07 15:59:58;;;;;;;2.00;1.55;;;;;;;28.04;42.69;100626.98;714547;1174;113401;-80
2021/06/07 16:15:19;;;;;;;89.58;62.70;;;;;;;27.70;41.78;100616.95;714204;1200;114965;-80
2021/06/07 16:30:43;;;;;;;16.03;6.80;;;;;;;27.12;41.78;100612.53;714228;1177;114383;-77
2021/06/07 16:46:05;;;;;;;2.78;2.08;;;;;;;26.97;41.42;100611.16;714488;1200;114146;-77
2021/06/07 17:01:25;;;;;;;3.68;2.05;;;;;;;26.86;41.08;100606.63;714296;1200;114028;-78
2021/06/07 17:16:49;;;;;;;4.58;2.08;;;;;;;26.42;40.61;100601.55;714321;1185;114032;-79
2021/06/07 17:32:09;;;;;;;5.63;2.40;;;;;;;25.72;40.72;100608.39;714378;1199;113930;-77
2021/06/07 17:47:30;;;;;;;17.13;8.33;;;;;;;24.86;41.25;100611.05;714854;1178;113928;-82
2021/06/07 18:02:51;;;;;;;10.40;5.08;;;;;;;24.19;41.90;100628.52;714707;1177;114269;-78
2021/06/07 18:18:13;;;;;;;5.48;3.38;;;;;;;23.54;42.46;100631.33;714006;1179;114196;-81
2021/06/07 18:33:33;;;;;;;5.55;3.25;;;;;;;22.79;45.18;100645.08;714920;1202;113941;-80
2021/06/07 18:48:54;;;;;;;9.10;4.00;;;;;;;22.32;47.32;100659.24;714418;1199;114044;-79
2021/06/07 19:04:15;;;;;;;13.25;7.65;;;;;;;21.65;50.09;100682.28;717245;1191;114013;-80
2021/06/07 19:19:35;;;;;;;12.08;6.20;;;;;;;20.92;52.89;100699.47;714823;1202;115607;-78
2021/06/07 19:34:55;;;;;;;54.90;24.43;;;;;;;20.38;55.43;100706.95;714362;1202;114446;-81
2021/06/07 19:50:16;;;;;;;10.27;5.20;;;;;;;19.45;57.37;100717.27;714693;1199;114457;-80
2021/06/07 20:05:36;;;;;;;7.98;4.48;;;;;;;19.05;59.88;100722.00;715068;1200;114795;-79
2021/06/07 20:20:57;;;;;;;11.95;6.93;;;;;;;18.55;63.38;100732.98;714839;1200;114739;-80
2021/06/07 20:36:18;;;;;;;44.28;20.00;;;;;;;18.42;65.78;100728.28;714934;1185;114353;-78
2021/06/07 20:51:39;;;;;;;34.80;15.57;;;;;;;18.35;69.90;100726.50;714736;1177;114120;-78
2021/06/07 21:07:00;;;;;;;22.83;11.13;;;;;;;18.09;73.49;100741.74;715901;1203;114090;-81
2021/06/07 21:22:21;;;;;;;26.97;13.67;;;;;;;17.95;76.34;100743.28;714171;1199;114143;-78
2021/06/07 21:37:45;;;;;;;28.20;12.23;;;;;;;17.71;78.28;100745.99;714089;1200;115485;-80
2021/06/07 21:53:06;;;;;;;15.90;9.83;;;;;;;17.49;80.63;100755.53;714525;1176;114397;-78
2021/06/07 22:08:28;;;;;;;14.50;9.43;;;;;;;17.22;83.31;100749.58;714412;1200;114245;-78
2021/06/07 22:24:06;;;;;;;19.83;10.55;;;;;;;16.93;85.90;100748.27;714159;1200;114943;-78
2021/06/07 22:39:26;;;;;;;13.93;8.97;;;;;;;16.46;91.03;100747.87;714097;1199;114860;-78
2021/06/07 22:54:47;;;;;;;15.33;8.48;;;;;;;16.22;94.58;100735.41;714186;1177;114116;-78
2021/06/07 23:10:08;;;;;;;26.20;13.97;;;;;;;16.20;96.12;100742.67;714167;1202;115498;-78
2021/06/07 23:25:28;;;;;;;28.18;13.73;;;;;;;16.00;97.36;100743.95;714026;1199;114996;-78
2021/06/07 23:40:49;;;;;;;20.07;12.30;;;;;;;15.98;98.18;100744.08;714354;1203;115396;-78
2021/06/07 23:56:10;;;;;;;18.23;10.68;;;;;;;15.87;97.52;100739.91;714267;1202;115530;-78
